createdAt,value
2018-09-06T00:00:28.043Z,8.38
2018-09-06T00:03:02.049Z,7.70
2018-09-06T00:05:36.204Z,8.53
2018-09-06T00:08:10.149Z,8.78
2018-09-06T00:10:44.164Z,8.38
2018-09-06T00:13:18.109Z,7.75
2018-09-06T00:15:52.633Z,8.68
2018-09-06T00:18:26.653Z,7.90
2018-09-06T00:21:00.801Z,10.55
2018-09-06T00:23:34.909Z,7.80
2018-09-06T00:26:08.715Z,8.05
2018-09-06T00:28:42.778Z,10.05
2018-09-06T00:31:16.706Z,7.47
2018-09-06T00:33:50.685Z,7.95
2018-09-06T00:36:24.469Z,12.28
2018-09-06T00:38:58.901Z,8.20
2018-09-06T00:41:32.717Z,10.05
2018-09-06T00:44:06.529Z,8.48
2018-09-06T00:46:40.509Z,9.15
2018-09-06T00:49:14.404Z,9.65
2018-09-06T00:51:48.442Z,9.25
2018-09-06T00:54:22.461Z,10.55
2018-09-06T00:56:56.384Z,13.10
2018-09-06T00:59:30.200Z,8.95
2018-09-06T01:02:03.935Z,10.43
2018-09-06T01:04:38.073Z,12.18
2018-09-06T01:07:12.688Z,7.60
2018-09-06T01:09:46.553Z,8.08
2018-09-06T01:12:20.621Z,7.85
2018-09-06T01:14:54.939Z,7.70
2018-09-06T01:17:29.343Z,13.85
2018-09-06T01:20:03.475Z,8.18
2018-09-06T01:22:37.706Z,7.90
2018-09-06T01:25:11.689Z,10.20
2018-09-06T01:27:45.584Z,7.45
2018-09-06T01:30:19.930Z,7.35
2018-09-06T01:32:53.778Z,8.78
2018-09-06T01:35:27.541Z,7.15
2018-09-06T01:38:01.569Z,8.20
2018-09-06T01:40:35.544Z,7.22
2018-09-06T01:43:09.784Z,7.62
2018-09-06T01:45:43.590Z,7.47
2018-09-06T01:48:17.733Z,7.78
2018-09-06T01:50:51.901Z,9.08
2018-09-06T01:53:25.765Z,7.67
2018-09-06T01:55:59.633Z,8.98
2018-09-06T01:58:37.853Z,6.70
2018-09-06T02:01:11.555Z,7.37
2018-09-06T02:03:46.155Z,7.85
2018-09-06T02:06:20.673Z,10.30
2018-09-06T02:08:54.938Z,8.30
2018-09-06T02:11:28.820Z,8.00
2018-09-06T02:14:02.874Z,7.70
2018-09-06T02:16:36.973Z,8.15
2018-09-06T02:19:10.950Z,7.90
2018-09-06T02:21:45.883Z,7.42
2018-09-06T02:24:19.845Z,7.55
2018-09-06T02:26:53.786Z,7.87
2018-09-06T02:29:27.526Z,12.03
2018-09-06T02:32:01.456Z,8.28
2018-09-06T02:34:35.206Z,7.05
2018-09-06T02:37:09.115Z,8.13
2018-09-06T02:39:42.909Z,9.40
2018-09-06T02:42:16.778Z,10.82
2018-09-06T02:44:50.748Z,7.67
2018-09-06T02:47:25.160Z,7.95
2018-09-06T02:50:05.317Z,9.33
2018-09-06T02:52:39.208Z,8.43
2018-09-06T02:55:13.315Z,8.78
2018-09-06T02:57:47.434Z,8.18
2018-09-06T03:00:26.918Z,8.48
2018-09-06T03:03:00.948Z,7.62
2018-09-06T03:05:34.743Z,8.70
2018-09-06T03:08:09.194Z,10.28
2018-09-06T03:10:44.917Z,10.72
2018-09-06T03:13:18.878Z,8.40
2018-09-06T03:15:53.046Z,8.53
2018-09-06T03:18:27.086Z,9.68
2018-09-06T03:21:01.765Z,8.80
2018-09-06T03:23:36.373Z,9.30
2018-09-06T03:26:15.943Z,8.15
2018-09-06T03:28:50.571Z,8.50
2018-09-06T03:31:25.745Z,8.93
2018-09-06T03:34:00.028Z,8.18
2018-09-06T03:36:34.090Z,8.30
2018-09-06T03:39:08.915Z,8.23
2018-09-06T03:41:42.734Z,8.40
2018-09-06T03:44:17.096Z,9.73
2018-09-06T03:46:51.098Z,8.43
2018-09-06T03:49:25.022Z,8.83
2018-09-06T03:51:59.026Z,8.68
2018-09-06T03:54:32.946Z,10.82
2018-09-06T03:57:07.351Z,11.23
2018-09-06T03:59:41.291Z,9.25
2018-09-06T04:02:15.200Z,10.15
2018-09-06T04:04:49.104Z,9.65
2018-09-06T04:07:22.984Z,8.17
2018-09-06T04:09:57.101Z,8.98
2018-09-06T04:12:31.234Z,8.63
2018-09-06T04:15:05.315Z,9.10
2018-09-06T04:17:39.356Z,11.57
2018-09-06T04:20:13.532Z,10.47
2018-09-06T04:22:50.375Z,8.50
2018-09-06T04:25:24.392Z,9.37
2018-09-06T04:27:59.144Z,8.53
2018-09-06T04:30:33.184Z,8.50
2018-09-06T04:33:07.259Z,8.67
2018-09-06T04:35:41.331Z,8.65
2018-09-06T04:38:15.517Z,9.33
2018-09-06T04:40:49.615Z,13.00
2018-09-06T04:43:24.065Z,8.40
2018-09-06T04:45:58.015Z,10.93
2018-09-06T04:48:33.347Z,10.45
2018-09-06T04:51:07.315Z,10.37
2018-09-06T04:53:41.251Z,10.23
2018-09-06T04:56:15.301Z,9.67
2018-09-06T04:58:49.415Z,9.17
2018-09-06T05:01:23.384Z,11.22
2018-09-06T05:03:57.411Z,9.37
2018-09-06T05:06:31.566Z,10.70
2018-09-06T05:09:07.853Z,9.80
2018-09-06T05:11:42.430Z,14.63
2018-09-06T05:14:16.437Z,8.80
2018-09-06T05:16:51.100Z,10.40
2018-09-06T05:19:24.961Z,10.82
2018-09-06T05:21:59.439Z,9.57
2018-09-06T05:24:33.814Z,10.75
2018-09-06T05:27:07.798Z,10.43
2018-09-06T05:29:41.891Z,10.98
2018-09-06T05:32:15.895Z,11.38
2018-09-06T05:34:49.870Z,9.55
2018-09-06T05:37:23.991Z,11.53
2018-09-06T05:39:58.131Z,9.70
2018-09-06T05:42:32.119Z,10.93
2018-09-06T05:45:05.981Z,9.25
2018-09-06T05:47:39.934Z,11.22
2018-09-06T05:50:14.144Z,9.43
2018-09-06T05:52:52.149Z,11.33
2018-09-06T05:55:26.155Z,10.23
2018-09-06T05:58:01.724Z,9.10
2018-09-06T06:00:41.626Z,10.05
2018-09-06T06:03:15.424Z,11.20
2018-09-06T06:05:49.648Z,10.32
2018-09-06T06:08:35.204Z,10.30
2018-09-06T06:11:09.063Z,9.80
2018-09-06T06:13:43.009Z,9.13
2018-09-06T06:16:17.194Z,9.88
2018-09-06T06:18:51.054Z,11.53
2018-09-06T06:21:24.867Z,10.65
2018-09-06T06:23:58.761Z,10.53
2018-09-06T06:26:32.773Z,12.13
2018-09-06T06:29:07.251Z,10.75
2018-09-06T06:31:41.059Z,12.33
2018-09-06T06:34:15.667Z,19.12
2018-09-06T06:36:49.937Z,13.35
2018-09-06T06:39:23.986Z,12.18
2018-09-06T06:41:57.909Z,14.25
2018-09-06T06:44:31.785Z,13.80
2018-09-06T06:47:05.238Z,13.32
2018-09-06T06:49:39.833Z,13.72
2018-09-06T06:52:13.560Z,13.93
2018-09-06T06:54:47.639Z,18.20
2018-09-06T06:57:21.531Z,14.47
2018-09-06T06:59:55.769Z,16.70
2018-09-06T07:02:29.751Z,17.82
2018-09-06T07:05:03.661Z,14.83
2018-09-06T07:07:37.695Z,16.70
2018-09-06T07:10:11.946Z,18.92
2018-09-06T07:12:46.026Z,16.30
2018-09-06T07:15:20.091Z,21.87
2018-09-06T07:17:53.838Z,17.12
2018-09-06T07:20:27.706Z,17.55
2018-09-06T07:23:01.741Z,18.73
2018-09-06T07:25:35.574Z,17.77
2018-09-06T07:28:09.447Z,19.25
2018-09-06T07:30:43.576Z,19.48
2018-09-06T07:33:17.661Z,20.37
2018-09-06T07:35:51.456Z,21.62
2018-09-06T07:38:25.403Z,22.42
2018-09-06T07:40:59.260Z,22.93
2018-09-06T07:43:33.125Z,21.70
2018-09-06T07:46:07.136Z,18.15
2018-09-06T07:48:41.918Z,19.20
2018-09-06T07:51:15.750Z,19.00
2018-09-06T07:53:49.676Z,17.98
2018-09-06T07:56:23.719Z,17.48
2018-09-06T07:58:57.681Z,20.23
2018-09-06T08:01:31.541Z,21.82
2018-09-06T08:04:05.539Z,22.58
2018-09-06T08:06:39.525Z,21.70
2018-09-06T08:09:13.664Z,17.48
2018-09-06T08:11:47.414Z,20.10
2018-09-06T08:14:21.404Z,20.95
2018-09-06T08:16:55.644Z,20.82
2018-09-06T08:19:29.684Z,19.92
2018-09-06T08:22:03.455Z,19.10
2018-09-06T08:24:37.639Z,20.48
2018-09-06T08:27:11.345Z,20.30
2018-09-06T08:29:45.756Z,19.67
2018-09-06T08:32:19.825Z,19.67
2018-09-06T08:37:34.204Z,20.17
2018-09-06T08:40:08.426Z,21.65
2018-09-06T08:42:42.395Z,20.95
2018-09-06T08:45:16.433Z,21.10
2018-09-06T08:47:50.139Z,19.62
2018-09-06T08:50:24.895Z,19.62
2018-09-06T08:52:58.859Z,18.77
2018-09-06T08:55:32.879Z,18.62
2018-09-06T08:58:07.009Z,19.73
2018-09-06T09:00:41.544Z,25.08
2018-09-06T09:03:15.624Z,19.98
2018-09-06T09:05:49.662Z,19.85
2018-09-06T09:08:23.809Z,20.37
2018-09-06T09:10:57.860Z,19.92
2018-09-06T09:13:32.305Z,18.85
2018-09-06T09:16:06.838Z,21.45
2018-09-06T09:18:41.081Z,16.20
2018-09-06T09:21:14.931Z,21.25
2018-09-06T09:23:49.514Z,18.55
2018-09-06T09:26:23.405Z,19.05
2018-09-06T09:28:57.239Z,29.82
2018-09-06T09:31:31.218Z,18.02
2018-09-06T09:34:05.644Z,19.05
2018-09-06T09:36:39.555Z,18.12
2018-09-06T09:39:13.665Z,18.87
2018-09-06T09:41:47.723Z,20.05
2018-09-06T09:44:21.763Z,20.00
2018-09-06T09:49:29.835Z,16.45
2018-09-06T09:52:03.602Z,21.95
2018-09-06T09:54:37.499Z,22.02
2018-09-06T09:57:11.609Z,16.90
2018-09-06T09:59:45.612Z,17.75
2018-09-06T10:02:25.072Z,20.60
2018-09-06T10:05:04.497Z,17.73
2018-09-06T10:07:43.951Z,16.97
2018-09-06T10:10:17.715Z,18.07
2018-09-06T10:12:51.934Z,18.60
2018-09-06T10:15:25.774Z,20.15
2018-09-06T10:17:59.853Z,17.32
2018-09-06T10:20:33.891Z,18.32
2018-09-06T10:23:08.141Z,17.00
2018-09-06T10:25:41.945Z,19.48
2018-09-06T10:28:16.139Z,19.77
2018-09-06T10:30:50.724Z,21.70
2018-09-06T10:33:24.975Z,23.80
2018-09-06T10:35:59.009Z,20.55
2018-09-06T10:38:33.079Z,25.05
2018-09-06T10:41:07.279Z,20.90
2018-09-06T10:43:41.314Z,18.70
2018-09-06T10:46:15.262Z,21.05
2018-09-06T10:48:49.530Z,21.17
2018-09-06T10:51:23.456Z,23.50
2018-09-06T10:53:57.395Z,19.82
2018-09-06T10:56:31.506Z,21.40
2018-09-06T10:59:05.476Z,20.15
2018-09-06T11:01:39.415Z,24.60
2018-09-06T11:04:13.492Z,22.00
2018-09-06T11:06:47.495Z,22.70
2018-09-06T11:09:21.431Z,20.80
2018-09-06T11:11:55.314Z,28.92
2018-09-06T11:14:29.446Z,20.92
2018-09-06T11:17:03.372Z,22.50
2018-09-06T11:19:37.308Z,24.30
2018-09-06T11:22:11.404Z,22.37
2018-09-06T11:24:45.389Z,21.52
2018-09-06T11:27:19.372Z,23.47
2018-09-06T11:29:53.279Z,22.30
2018-09-06T11:32:27.320Z,17.90
2018-09-06T11:35:01.060Z,19.32
2018-09-06T11:37:35.154Z,23.98
2018-09-06T11:40:09.075Z,19.00
2018-09-06T11:42:43.065Z,17.73
2018-09-06T11:45:17.160Z,17.17
2018-09-06T11:47:51.289Z,20.45
2018-09-06T11:50:25.371Z,17.07
2018-09-06T11:52:59.825Z,21.57
2018-09-06T11:55:34.024Z,19.98
2018-09-06T11:58:08.087Z,22.75
2018-09-06T12:00:43.768Z,21.05
2018-09-06T12:03:17.856Z,20.65
2018-09-06T12:05:51.745Z,20.00
2018-09-06T12:08:25.768Z,19.73
2018-09-06T12:10:59.857Z,20.40
2018-09-06T12:13:34.308Z,24.85
2018-09-06T12:16:08.218Z,22.70
2018-09-06T12:18:42.209Z,19.90
2018-09-06T12:21:17.659Z,20.57
2018-09-06T12:23:51.735Z,18.30
2018-09-06T12:26:25.564Z,19.50
2018-09-06T12:29:00.091Z,23.20
2018-09-06T12:31:33.976Z,21.85
2018-09-06T12:34:08.805Z,19.12
2018-09-06T12:36:43.135Z,18.52
2018-09-06T12:39:17.462Z,20.48
2018-09-06T12:41:51.700Z,24.10
2018-09-06T12:44:26.000Z,22.62
2018-09-06T12:47:00.520Z,20.50
2018-09-06T12:49:34.857Z,22.67
2018-09-06T12:52:08.845Z,22.32
2018-09-06T12:54:42.786Z,19.85
2018-09-06T12:57:16.700Z,19.98
2018-09-06T12:59:53.755Z,21.70
2018-09-06T13:02:28.187Z,26.65
2018-09-06T13:05:02.770Z,25.15
2018-09-06T13:07:36.800Z,25.17
2018-09-06T13:10:10.579Z,25.57
2018-09-06T13:12:44.807Z,24.43
2018-09-06T13:15:18.817Z,23.12
2018-09-06T13:17:52.911Z,24.50
2018-09-06T13:20:26.904Z,26.65
2018-09-06T13:23:01.302Z,25.65
2018-09-06T13:25:35.785Z,28.15
2018-09-06T13:28:09.794Z,28.05
2018-09-06T13:30:43.653Z,26.82
2018-09-06T13:33:17.551Z,28.75
2018-09-06T13:35:51.565Z,33.38
2018-09-06T13:38:25.744Z,25.82
2018-09-06T13:40:59.846Z,25.23
2018-09-06T13:43:33.812Z,28.15
2018-09-06T13:46:08.321Z,28.98
2018-09-06T13:48:42.299Z,29.52
2018-09-06T13:51:16.469Z,28.40
2018-09-06T13:53:50.317Z,30.23
2018-09-06T13:56:24.357Z,24.87
2018-09-06T13:58:58.806Z,24.70
2018-09-06T14:01:32.995Z,30.65
2018-09-06T14:04:06.969Z,30.85
2018-09-06T14:06:40.907Z,29.02
2018-09-06T14:09:15.912Z,31.70
2018-09-06T14:11:49.945Z,24.47
2018-09-06T14:14:23.761Z,29.63
2018-09-06T14:16:57.732Z,28.00
2018-09-06T14:19:31.596Z,28.65
2018-09-06T14:22:06.439Z,30.05
2018-09-06T14:24:40.380Z,28.25
2018-09-06T14:27:14.474Z,30.85
2018-09-06T14:29:48.615Z,32.10
2018-09-06T14:32:22.425Z,40.48
2018-09-06T14:34:56.400Z,31.57
2018-09-06T14:37:30.234Z,29.18
2018-09-06T14:40:04.384Z,30.62
2018-09-06T14:42:38.345Z,32.60
2018-09-06T14:45:12.871Z,35.33
2018-09-06T14:47:47.032Z,31.23
2018-09-06T14:50:21.055Z,25.27
2018-09-06T14:52:55.235Z,25.57
2018-09-06T14:55:29.379Z,27.58
2018-09-06T14:58:03.372Z,33.08
2018-09-06T15:00:37.252Z,30.77
2018-09-06T15:03:11.211Z,28.20
2018-09-06T15:05:45.753Z,25.97
2018-09-06T15:08:20.582Z,26.48
2018-09-06T15:10:54.537Z,32.33
2018-09-06T15:13:28.589Z,26.52
2018-09-06T15:16:02.755Z,28.50
2018-09-06T15:18:36.615Z,25.30
2018-09-06T15:21:11.055Z,23.67
2018-09-06T15:23:44.913Z,20.10
2018-09-06T15:26:18.850Z,22.95
2018-09-06T15:28:52.703Z,21.12
2018-09-06T15:31:26.947Z,20.37
2018-09-06T15:34:00.812Z,19.95
2018-09-06T15:36:34.860Z,19.82
2018-09-06T15:39:09.791Z,19.48
2018-09-06T15:41:44.171Z,19.98
2018-09-06T15:44:18.197Z,19.17
2018-09-06T15:46:52.154Z,19.60
2018-09-06T15:49:26.681Z,19.25
2018-09-06T15:52:00.651Z,18.57
2018-09-06T15:54:34.869Z,19.45
2018-09-06T15:57:08.990Z,18.77
2018-09-06T15:59:43.446Z,20.60
2018-09-06T16:02:17.860Z,21.12
2018-09-06T16:04:52.110Z,19.77
2018-09-06T16:07:26.074Z,18.60
2018-09-06T16:09:59.909Z,20.10
2018-09-06T16:12:34.226Z,19.73
2018-09-06T16:15:08.232Z,21.07
2018-09-06T16:17:42.205Z,20.62
2018-09-06T16:20:16.370Z,22.20
2018-09-06T16:22:50.394Z,21.37
2018-09-06T16:25:24.311Z,23.00
2018-09-06T16:27:58.308Z,21.97
2018-09-06T16:30:32.237Z,27.13
2018-09-06T16:33:06.297Z,24.35
2018-09-06T16:35:40.287Z,23.90
2018-09-06T16:38:14.447Z,24.47
2018-09-06T16:40:48.826Z,25.85
2018-09-06T16:43:22.955Z,24.32
2018-09-06T16:45:57.453Z,23.98
2018-09-06T16:48:31.317Z,22.77
2018-09-06T16:51:05.342Z,22.70
2018-09-06T16:53:39.331Z,22.62
2018-09-06T16:56:13.339Z,24.85
2018-09-06T16:58:47.396Z,22.05
2018-09-06T17:01:22.139Z,20.97
2018-09-06T17:03:56.111Z,21.10
2018-09-06T17:06:30.305Z,20.60
2018-09-06T17:09:06.063Z,21.82
2018-09-06T17:11:40.152Z,20.90
2018-09-06T17:14:14.094Z,19.80
2018-09-06T17:16:49.255Z,19.42
2018-09-06T17:19:23.216Z,19.17
2018-09-06T17:21:57.141Z,18.92
2018-09-06T17:24:31.172Z,18.82
2018-09-06T17:27:05.011Z,19.27
2018-09-06T17:29:39.011Z,19.80
2018-09-06T17:32:13.240Z,22.93
2018-09-06T17:34:47.356Z,20.82
2018-09-06T17:37:21.355Z,21.25
2018-09-06T17:39:55.572Z,19.82
2018-09-06T17:42:31.060Z,19.95
2018-09-06T17:45:05.242Z,20.90
2018-09-06T17:47:39.646Z,21.35
2018-09-06T17:50:13.936Z,22.62
2018-09-06T17:52:48.083Z,22.62
2018-09-06T17:55:22.211Z,22.37
2018-09-06T17:57:56.399Z,23.40
2018-09-06T18:00:30.767Z,22.10
2018-09-06T18:03:04.959Z,22.50
2018-09-06T18:05:39.187Z,24.37
2018-09-06T18:08:13.412Z,25.25
2018-09-06T18:10:47.762Z,24.85
2018-09-06T18:13:21.746Z,25.68
2018-09-06T18:15:56.011Z,27.42
2018-09-06T18:18:30.160Z,25.85
2018-09-06T18:21:04.844Z,25.25
2018-09-06T18:23:39.127Z,25.12
2018-09-06T18:26:13.589Z,23.32
2018-09-06T18:28:47.919Z,22.93
2018-09-06T18:31:22.670Z,22.73
2018-09-06T18:33:57.409Z,26.02
2018-09-06T18:36:31.789Z,24.55
2018-09-06T18:39:07.330Z,27.58
2018-09-06T18:41:41.664Z,26.35
2018-09-06T18:44:16.212Z,27.98
2018-09-06T18:46:50.558Z,24.90
2018-09-06T18:49:24.600Z,24.72
2018-09-06T18:51:59.059Z,25.12
2018-09-06T18:54:33.255Z,26.62
2018-09-06T18:57:07.314Z,25.77
2018-09-06T18:59:41.405Z,27.20
2018-09-06T19:02:15.620Z,28.27
2018-09-06T19:04:50.095Z,27.20
2018-09-06T19:07:24.224Z,26.93
2018-09-06T19:09:58.424Z,25.85
2018-09-06T19:12:32.446Z,27.45
2018-09-06T19:15:06.722Z,27.67
2018-09-06T19:17:40.830Z,30.80
2018-09-06T19:20:14.836Z,32.15
2018-09-06T19:22:48.977Z,29.32
2018-09-06T19:25:24.119Z,29.10
2018-09-06T19:27:58.157Z,28.40
2018-09-06T19:30:32.791Z,31.93
2018-09-06T19:33:06.885Z,32.13
2018-09-06T19:35:40.876Z,32.13
2018-09-06T19:38:14.982Z,33.30
2018-09-06T19:40:49.571Z,32.63
2018-09-06T19:43:23.449Z,33.02
2018-09-06T19:45:57.620Z,31.37
2018-09-06T19:48:31.570Z,29.23
2018-09-06T19:51:05.899Z,29.98
2018-09-06T19:53:40.127Z,31.77
2018-09-06T19:56:14.220Z,32.67
2018-09-06T19:58:48.233Z,28.20
2018-09-06T20:01:22.356Z,37.63
2018-09-06T20:03:57.809Z,34.48
2018-09-06T20:06:32.965Z,34.55
2018-09-06T20:09:07.353Z,33.20
2018-09-06T20:11:41.447Z,31.45
2018-09-06T20:14:15.516Z,35.15
2018-09-06T20:16:49.964Z,34.33
2018-09-06T20:19:23.882Z,37.65
2018-09-06T20:21:57.986Z,39.65
2018-09-06T20:24:32.016Z,36.80
2018-09-06T20:27:06.491Z,38.80
2018-09-06T20:29:40.821Z,38.33
2018-09-06T20:32:14.761Z,40.67
2018-09-06T20:34:48.777Z,41.80
2018-09-06T20:37:22.794Z,41.18
2018-09-06T20:39:57.102Z,42.93
2018-09-06T20:42:30.934Z,45.10
2018-09-06T20:45:05.257Z,43.92
2018-09-06T20:47:39.409Z,46.18
2018-09-06T20:50:13.480Z,49.75
2018-09-06T20:52:47.370Z,46.37
2018-09-06T20:55:21.691Z,45.28
2018-09-06T20:57:55.823Z,48.63
2018-09-06T21:00:30.320Z,54.70
2018-09-06T21:03:04.539Z,53.02
2018-09-06T21:05:38.669Z,53.60
2018-09-06T21:08:12.459Z,56.00
2018-09-06T21:10:46.668Z,60.73
2018-09-06T21:13:20.832Z,59.45
2018-09-06T21:15:55.082Z,60.33
2018-09-06T21:18:28.865Z,67.17
2018-09-06T21:21:02.919Z,62.58
2018-09-06T21:23:36.890Z,64.25
2018-09-06T21:26:11.024Z,58.30
2018-09-06T21:28:44.844Z,57.45
2018-09-06T21:31:19.316Z,63.65
2018-09-06T21:33:53.140Z,63.87
2018-09-06T21:36:27.253Z,65.57
2018-09-06T21:39:01.344Z,61.02
2018-09-06T21:41:35.349Z,61.55
2018-09-06T21:44:09.616Z,63.85
2018-09-06T21:46:43.707Z,58.10
2018-09-06T21:49:17.564Z,68.62
2018-09-06T21:51:51.528Z,61.92
2018-09-06T21:54:25.820Z,71.97
2018-09-06T21:56:59.974Z,71.87
2018-09-06T21:59:34.126Z,86.72
2018-09-06T22:02:12.611Z,95.65
2018-09-06T22:04:46.499Z,113.00
2018-09-06T22:07:20.645Z,105.87
2018-09-06T22:09:54.525Z,129.95
2018-09-06T22:12:28.559Z,118.15
2018-09-06T22:15:02.520Z,120.42
2018-09-06T22:17:36.614Z,135.10
2018-09-06T22:20:11.520Z,126.18
2018-09-06T22:22:45.519Z,121.15
2018-09-06T22:25:19.355Z,122.85
2018-09-06T22:27:53.184Z,120.10
2018-09-06T22:30:27.168Z,122.62
2018-09-06T22:33:01.316Z,121.17
2018-09-06T22:35:35.565Z,116.88
2018-09-06T22:38:09.715Z,114.55
2018-09-06T22:40:43.449Z,114.90
2018-09-06T22:43:17.354Z,121.97
2018-09-06T22:45:51.369Z,110.20
2018-09-06T22:48:25.319Z,119.37
2018-09-06T22:50:59.741Z,116.35
2018-09-06T22:53:34.259Z,120.05
2018-09-06T22:56:08.334Z,125.92
2018-09-06T22:58:42.914Z,120.28
2018-09-06T23:01:16.855Z,119.60
2018-09-06T23:03:51.805Z,124.70
2018-09-06T23:06:25.907Z,131.40
2018-09-06T23:09:00.014Z,127.62
2018-09-06T23:11:34.006Z,119.57
2018-09-06T23:14:08.505Z,122.82
2018-09-06T23:16:42.445Z,79.42
2018-09-06T23:19:16.716Z,62.70
2018-09-06T23:21:50.488Z,52.13
2018-09-06T23:24:24.575Z,53.23
2018-09-06T23:26:58.611Z,50.52
2018-09-06T23:29:32.544Z,48.85
2018-09-06T23:32:06.825Z,51.23
2018-09-06T23:34:41.284Z,58.10
2018-09-06T23:37:15.131Z,52.70
2018-09-06T23:39:49.193Z,50.60
2018-09-06T23:42:24.890Z,48.58
2018-09-06T23:44:58.969Z,42.73
2018-09-06T23:47:33.114Z,46.08
2018-09-06T23:50:07.235Z,39.43
2018-09-06T23:52:41.458Z,38.47
2018-09-06T23:55:15.649Z,41.18
2018-09-06T23:57:49.496Z,43.05
